createdAt,value
2018-06-04T00:02:28.085Z,18.20
2018-06-04T00:04:56.921Z,18.10
2018-06-04T00:07:25.752Z,18.10
2018-06-04T00:09:54.587Z,18.10
2018-06-04T00:12:23.407Z,18.00
2018-06-04T00:14:52.250Z,18.00
2018-06-04T00:17:21.044Z,18.00
2018-06-04T00:19:49.876Z,18.00
2018-06-04T00:22:18.692Z,18.10
2018-06-04T00:24:47.522Z,18.00
2018-06-04T00:27:16.340Z,18.00
2018-06-04T00:29:45.196Z,18.00
2018-06-04T00:32:15.228Z,18.00
2018-06-04T00:34:44.045Z,18.00
2018-06-04T00:37:12.875Z,17.90
2018-06-04T00:39:41.709Z,17.90
2018-06-04T00:42:10.532Z,17.80
2018-06-04T00:44:39.396Z,17.80
2018-06-04T00:47:08.238Z,17.80
2018-06-04T00:49:37.067Z,17.80
2018-06-04T00:52:05.949Z,17.70
2018-06-04T00:54:34.778Z,17.60
2018-06-04T00:57:03.578Z,17.60
2018-06-04T00:59:32.393Z,17.50
2018-06-04T01:02:02.357Z,17.50
2018-06-04T01:04:31.155Z,17.50
2018-06-04T01:06:59.992Z,17.40
2018-06-04T01:09:28.803Z,17.40
2018-06-04T01:11:57.638Z,17.30
2018-06-04T01:14:27.049Z,17.30
2018-06-04T01:16:55.873Z,17.30
2018-06-04T01:19:24.689Z,17.20
2018-06-04T01:21:53.503Z,17.20
2018-06-04T01:24:22.311Z,17.20
2018-06-04T01:26:51.217Z,17.10
2018-06-04T01:29:20.020Z,17.10
2018-06-04T01:31:48.947Z,17.10
2018-06-04T01:34:17.748Z,17.00
2018-06-04T01:36:46.560Z,17.00
2018-06-04T01:39:15.373Z,17.00
2018-06-04T01:41:44.301Z,16.90
2018-06-04T01:44:13.110Z,16.90
2018-06-04T01:46:41.936Z,16.80
2018-06-04T01:49:10.787Z,16.80
2018-06-04T01:51:39.593Z,16.80
2018-06-04T01:54:08.418Z,16.80
2018-06-04T01:56:37.226Z,16.80
2018-06-04T01:59:06.044Z,16.80
2018-06-04T02:01:34.863Z,16.70
2018-06-04T02:04:03.682Z,16.70
2018-06-04T02:06:32.514Z,16.60
2018-06-04T02:09:01.330Z,16.60
2018-06-04T02:11:30.507Z,16.50
2018-06-04T02:13:59.356Z,16.50
2018-06-04T02:16:28.170Z,16.40
2018-06-04T02:18:56.994Z,16.40
2018-06-04T02:21:26.438Z,16.30
2018-06-04T02:23:55.255Z,16.30
2018-06-04T02:26:24.068Z,16.30
2018-06-04T02:28:52.930Z,16.20
2018-06-04T02:31:21.679Z,16.20
2018-06-04T02:33:50.513Z,16.20
2018-06-04T02:36:19.327Z,16.20
2018-06-04T02:38:48.142Z,16.20
2018-06-04T02:41:16.978Z,16.20
2018-06-04T02:43:45.815Z,16.20
2018-06-04T02:46:14.635Z,16.20
2018-06-04T02:48:43.453Z,16.10
2018-06-04T02:51:12.268Z,16.10
2018-06-04T02:53:41.123Z,16.10
2018-06-04T02:56:09.958Z,16.10
2018-06-04T02:58:38.774Z,16.10
2018-06-04T03:01:07.968Z,16.10
2018-06-04T03:03:36.811Z,16.00
2018-06-04T03:06:05.623Z,16.10
2018-06-04T03:08:34.463Z,16.10
2018-06-04T03:11:03.267Z,16.10
2018-06-04T03:13:32.084Z,16.10
2018-06-04T03:16:00.912Z,16.10
2018-06-04T03:18:29.734Z,16.10
2018-06-04T03:20:58.551Z,16.10
2018-06-04T03:23:27.374Z,16.10
2018-06-04T03:25:56.186Z,16.10
2018-06-04T03:28:24.999Z,16.20
2018-06-04T03:30:53.818Z,16.20
2018-06-04T03:33:22.738Z,16.30
2018-06-04T03:35:51.514Z,16.40
2018-06-04T03:38:20.331Z,16.40
2018-06-04T03:40:49.153Z,16.50
2018-06-04T03:43:17.962Z,16.60
2018-06-04T03:45:46.774Z,16.60
2018-06-04T03:48:15.587Z,16.70
2018-06-04T03:50:44.427Z,16.80
2018-06-04T03:53:13.671Z,16.90
2018-06-04T03:55:42.493Z,17.00
2018-06-04T03:58:11.302Z,17.10
2018-06-04T04:00:40.140Z,17.30
2018-06-04T04:03:08.962Z,17.40
2018-06-04T04:05:37.803Z,17.60
2018-06-04T04:08:06.619Z,17.80
2018-06-04T04:10:35.440Z,18.00
2018-06-04T04:13:04.258Z,18.20
2018-06-04T04:15:33.070Z,18.50
2018-06-04T04:18:01.879Z,18.70
2018-06-04T04:20:30.695Z,18.90
2018-06-04T04:22:59.738Z,19.20
2018-06-04T04:25:28.558Z,19.40
2018-06-04T04:27:57.366Z,19.70
2018-06-04T04:30:26.169Z,20.10
2018-06-04T04:32:54.999Z,20.40
2018-06-04T04:35:23.828Z,20.60
2018-06-04T04:37:52.672Z,20.90
2018-06-04T04:40:21.443Z,21.20
2018-06-04T04:42:50.258Z,21.50
2018-06-04T04:45:19.077Z,21.90
2018-06-04T04:47:47.895Z,22.20
2018-06-04T04:50:16.875Z,22.60
2018-06-04T04:52:45.688Z,22.90
2018-06-04T04:55:14.506Z,22.90
2018-06-04T04:57:43.323Z,22.90
2018-06-04T05:00:12.232Z,23.00
2018-06-04T05:02:41.052Z,23.30
2018-06-04T05:05:09.860Z,23.50
2018-06-04T05:07:39.379Z,23.60
2018-06-04T05:10:08.210Z,24.00
2018-06-04T05:12:37.020Z,24.40
2018-06-04T05:15:05.987Z,24.80
2018-06-04T05:17:34.802Z,25.20
2018-06-04T05:20:03.644Z,25.70
2018-06-04T05:22:32.464Z,26.20
2018-06-04T05:25:01.301Z,27.00
2018-06-04T05:27:30.638Z,27.60
2018-06-04T05:29:59.442Z,28.30
2018-06-04T05:32:28.374Z,29.60
2018-06-04T05:34:57.850Z,30.70
2018-06-04T05:37:26.668Z,31.60
2018-06-04T05:39:55.478Z,32.20
2018-06-04T05:42:24.330Z,32.90
2018-06-04T05:44:53.115Z,33.30
2018-06-04T05:47:22.625Z,33.80
2018-06-04T05:49:51.410Z,34.20
2018-06-04T05:52:20.415Z,34.00
2018-06-04T05:54:49.257Z,34.00
2018-06-04T05:57:18.179Z,34.20
2018-06-04T05:59:47.062Z,34.90
2018-06-04T06:02:15.886Z,34.80
2018-06-04T06:04:44.690Z,34.40
2018-06-04T06:09:48.463Z,34.90
2018-06-04T06:12:17.608Z,35.00
2018-06-04T06:14:46.998Z,35.30
2018-06-04T06:19:44.416Z,35.60
2018-06-04T06:22:13.202Z,35.60
2018-06-04T06:24:42.014Z,35.50
2018-06-04T06:27:10.825Z,36.20
2018-06-04T06:29:39.640Z,36.90
2018-06-04T06:32:08.454Z,37.20
2018-06-04T06:34:37.261Z,37.70
2018-06-04T06:37:06.094Z,38.00
2018-06-04T06:39:34.910Z,37.90
2018-06-04T06:42:03.714Z,37.70
2018-06-04T06:44:32.988Z,37.50
2018-06-04T06:47:01.792Z,37.70
2018-06-04T06:49:30.610Z,37.60
2018-06-04T06:51:59.401Z,37.00
2018-06-04T06:54:28.220Z,37.10
2018-06-04T06:56:57.039Z,36.80
2018-06-04T06:59:25.859Z,37.00
2018-06-04T07:01:54.714Z,36.90
2018-06-04T07:04:23.504Z,37.10
2018-06-04T07:06:52.310Z,37.60
2018-06-04T07:09:21.121Z,37.90
2018-06-04T07:11:49.930Z,37.60
2018-06-04T07:14:18.782Z,37.30
2018-06-04T07:16:47.831Z,36.20
2018-06-04T07:19:16.614Z,36.10
2018-06-04T07:21:45.458Z,35.50
2018-06-04T07:24:14.267Z,35.60
2018-06-04T07:26:43.982Z,35.40
2018-06-04T07:29:12.766Z,35.40
2018-06-04T07:31:41.563Z,34.40
2018-06-04T07:34:10.366Z,34.00
2018-06-04T07:36:39.184Z,33.50
2018-06-04T07:39:08.348Z,32.30
2018-06-04T07:41:37.160Z,31.60
2018-06-04T07:44:05.958Z,31.80
2018-06-04T07:46:34.768Z,31.80
2018-06-04T07:49:03.579Z,32.20
2018-06-04T07:51:32.419Z,32.80
2018-06-04T07:54:01.223Z,33.40
2018-06-04T07:56:30.027Z,33.90
2018-06-04T07:58:58.833Z,34.20
2018-06-04T08:01:27.631Z,34.30
2018-06-04T08:03:57.341Z,34.40
2018-06-04T08:06:26.176Z,34.40
2018-06-04T08:08:55.009Z,34.30
2018-06-04T08:11:23.943Z,33.20
2018-06-04T08:13:52.788Z,32.80
2018-06-04T08:16:21.590Z,32.80
2018-06-04T08:18:50.398Z,32.30
2018-06-04T08:21:19.586Z,31.40
2018-06-04T08:23:48.401Z,29.80
2018-06-04T08:26:17.275Z,28.30
2018-06-04T08:31:15.333Z,27.50
2018-06-04T08:33:44.151Z,27.40
2018-06-04T08:36:13.017Z,27.60
2018-06-04T08:38:42.470Z,28.10
2018-06-04T08:41:11.287Z,28.80
2018-06-04T08:43:40.090Z,29.50
2018-06-04T08:46:08.966Z,29.70
2018-06-04T08:48:37.775Z,29.90
2018-06-04T08:51:06.587Z,30.40
2018-06-04T08:53:35.395Z,31.00
2018-06-04T08:56:04.221Z,31.10
2018-06-04T08:58:33.048Z,31.10
2018-06-04T09:01:02.055Z,30.90
2018-06-04T09:03:30.870Z,30.50
2018-06-04T09:05:59.685Z,30.40
2018-06-04T09:08:28.542Z,30.00
2018-06-04T09:10:57.360Z,29.70
2018-06-04T09:13:26.238Z,29.80
2018-06-04T09:15:55.297Z,30.00
2018-06-04T09:18:24.109Z,30.20
2018-06-04T09:20:53.010Z,30.00
2018-06-04T09:23:21.866Z,29.90
2018-06-04T09:25:50.689Z,30.00
2018-06-04T09:28:19.487Z,29.90
2018-06-04T09:30:48.370Z,29.70
2018-06-04T09:33:17.247Z,29.80
2018-06-04T09:35:46.063Z,29.80
2018-06-04T09:38:14.918Z,29.80
2018-06-04T09:40:44.238Z,29.50
2018-06-04T09:43:13.051Z,29.40
2018-06-04T09:45:41.863Z,29.30
2018-06-04T09:48:10.702Z,29.40
2018-06-04T09:50:39.616Z,29.70
2018-06-04T09:53:08.516Z,30.20
2018-06-04T09:55:37.362Z,30.50
2018-06-04T09:58:06.200Z,30.10
2018-06-04T10:03:04.849Z,28.10
2018-06-04T10:05:33.651Z,27.80
2018-06-04T10:08:02.475Z,27.60
2018-06-04T10:10:31.275Z,27.50
2018-06-04T10:13:00.086Z,27.00
2018-06-04T10:15:28.897Z,26.50
2018-06-04T10:17:57.799Z,25.90
2018-06-04T10:20:26.606Z,25.60
2018-06-04T10:22:55.414Z,25.90
2018-06-04T10:25:24.293Z,26.10
2018-06-04T10:27:53.137Z,26.60
2018-06-04T10:30:21.906Z,27.10
2018-06-04T10:32:50.763Z,27.40
2018-06-04T10:35:19.566Z,27.20
2018-06-04T10:37:48.408Z,27.40
2018-06-04T10:40:17.214Z,27.50
2018-06-04T10:42:46.026Z,27.60
2018-06-04T10:45:14.844Z,27.90
2018-06-04T10:47:44.005Z,28.20
2018-06-04T10:50:12.802Z,28.50
2018-06-04T10:52:41.618Z,28.70
2018-06-04T10:55:10.426Z,28.60
2018-06-04T10:57:39.297Z,28.60
2018-06-04T11:00:08.300Z,29.00
2018-06-04T11:02:37.118Z,29.40
2018-06-04T11:05:05.930Z,29.60
2018-06-04T11:07:34.770Z,29.70
2018-06-04T11:10:03.581Z,29.80
2018-06-04T11:12:32.377Z,29.80
2018-06-04T11:15:01.213Z,29.80
2018-06-04T11:17:30.653Z,29.80
2018-06-04T11:19:59.474Z,29.80
2018-06-04T11:22:28.480Z,29.40
2018-06-04T11:24:57.350Z,29.00
2018-06-04T11:27:26.336Z,28.50
2018-06-04T11:29:55.161Z,28.40
2018-06-04T11:32:23.963Z,28.60
2018-06-04T11:34:52.865Z,28.70
2018-06-04T11:37:21.672Z,28.80
2018-06-04T11:39:50.470Z,28.30
2018-06-04T11:42:19.288Z,28.30
2018-06-04T11:44:48.109Z,28.40
2018-06-04T11:47:16.910Z,28.40
2018-06-04T11:49:45.726Z,28.50
2018-06-04T11:52:15.079Z,28.60
2018-06-04T11:54:43.890Z,28.60
2018-06-04T11:57:12.689Z,28.20
2018-06-04T11:59:41.520Z,27.70
2018-06-04T12:02:10.313Z,27.40
2018-06-04T12:04:39.141Z,27.30
2018-06-04T12:07:07.962Z,27.40
2018-06-04T12:09:36.814Z,27.50
2018-06-04T12:12:05.614Z,27.70
2018-06-04T12:14:34.426Z,27.80
2018-06-04T12:17:03.223Z,27.70
2018-06-04T12:19:32.037Z,27.90
2018-06-04T12:22:00.834Z,27.90
2018-06-04T12:24:29.649Z,27.90
2018-06-04T12:26:58.449Z,27.80
2018-06-04T12:29:27.250Z,27.80
2018-06-04T12:31:56.050Z,27.70
2018-06-04T12:34:24.883Z,27.50
2018-06-04T12:36:53.691Z,27.30
2018-06-04T12:39:22.519Z,27.20
2018-06-04T12:41:51.327Z,27.30
2018-06-04T12:44:20.151Z,27.40
2018-06-04T12:46:48.971Z,27.40
2018-06-04T12:49:17.771Z,27.30
2018-06-04T12:51:46.579Z,27.20
2018-06-04T12:54:15.382Z,27.20
2018-06-04T12:56:44.190Z,27.20
2018-06-04T12:59:12.993Z,27.20
2018-06-04T13:01:42.626Z,27.20
2018-06-04T13:04:11.435Z,27.00
2018-06-04T13:06:40.269Z,26.90
2018-06-04T13:09:09.070Z,26.90
2018-06-04T13:11:37.899Z,27.10
2018-06-04T13:14:06.718Z,27.20
2018-06-04T13:16:35.535Z,26.90
2018-06-04T13:19:04.347Z,26.90
2018-06-04T13:21:33.202Z,26.80
2018-06-04T13:24:01.999Z,26.70
2018-06-04T13:26:30.838Z,26.80
2018-06-04T13:28:59.665Z,26.90
2018-06-04T13:31:28.486Z,26.90
2018-06-04T13:33:57.351Z,27.00
2018-06-04T13:36:26.222Z,27.20
2018-06-04T13:38:55.035Z,27.40
2018-06-04T13:41:23.858Z,27.40
2018-06-04T13:43:52.675Z,27.40
2018-06-04T13:46:21.494Z,27.50
2018-06-04T13:48:50.301Z,27.60
2018-06-04T13:51:19.117Z,27.70
2018-06-04T13:53:47.962Z,27.40
2018-06-04T13:56:16.994Z,26.80
2018-06-04T13:58:45.765Z,26.30
2018-06-04T14:01:14.589Z,26.40
2018-06-04T14:03:43.394Z,26.50
2018-06-04T14:06:12.234Z,26.70
2018-06-04T14:08:41.062Z,26.90
2018-06-04T14:11:09.862Z,27.10
2018-06-04T14:13:38.668Z,27.20
2018-06-04T14:16:07.476Z,27.00
2018-06-04T14:18:36.270Z,27.00
2018-06-04T14:23:34.446Z,27.00
2018-06-04T14:28:31.750Z,26.90
2018-06-04T14:31:00.538Z,26.90
2018-06-04T14:33:29.343Z,27.00
2018-06-04T14:35:58.225Z,27.10
2018-06-04T14:38:27.041Z,27.30
2018-06-04T14:40:55.952Z,27.40
2018-06-04T14:43:24.730Z,27.60
2018-06-04T14:45:53.582Z,27.80
2018-06-04T14:48:22.398Z,28.00
2018-06-04T14:50:51.206Z,28.00
2018-06-04T14:53:20.056Z,28.00
2018-06-04T14:55:48.873Z,27.80
2018-06-04T14:58:17.693Z,27.30
2018-06-04T15:00:46.535Z,26.80
2018-06-04T15:03:15.367Z,26.60
2018-06-04T15:05:44.236Z,26.50
2018-06-04T15:08:13.023Z,26.30
2018-06-04T15:10:41.851Z,26.30
2018-06-04T15:13:10.687Z,26.20
2018-06-04T15:15:39.569Z,26.30
2018-06-04T15:18:08.388Z,26.30
2018-06-04T15:20:37.198Z,26.30
2018-06-04T15:23:06.030Z,26.30
2018-06-04T15:25:34.829Z,26.20
2018-06-04T15:28:03.654Z,26.00
2018-06-04T15:30:32.458Z,25.70
2018-06-04T15:33:01.543Z,25.50
2018-06-04T15:35:30.354Z,25.50
2018-06-04T15:37:59.263Z,25.50
2018-06-04T15:40:28.078Z,25.50
2018-06-04T15:42:56.910Z,25.60
2018-06-04T15:45:25.728Z,25.60
2018-06-04T15:47:54.555Z,25.60
2018-06-04T15:50:23.364Z,25.60
2018-06-04T15:52:52.784Z,25.70
2018-06-04T15:55:21.594Z,25.70
2018-06-04T15:57:50.407Z,25.60
2018-06-04T16:00:19.298Z,25.50
2018-06-04T16:02:48.160Z,25.50
2018-06-04T16:05:16.933Z,25.40
2018-06-04T16:07:45.742Z,25.30
2018-06-04T16:10:14.558Z,25.20
2018-06-04T16:12:43.393Z,25.20
2018-06-04T16:15:12.203Z,25.10
2018-06-04T16:17:41.016Z,25.10
2018-06-04T16:20:09.841Z,25.00
2018-06-04T16:22:38.685Z,25.00
2018-06-04T16:25:07.551Z,24.90
2018-06-04T16:27:36.337Z,24.90
2018-06-04T16:30:06.066Z,24.90
2018-06-04T16:32:34.887Z,24.90
2018-06-04T16:35:04.711Z,24.90
2018-06-04T16:37:33.661Z,24.90
2018-06-04T16:40:02.346Z,24.80
2018-06-04T16:42:31.168Z,24.80
2018-06-04T16:45:00.067Z,24.80
2018-06-04T16:47:28.846Z,24.80
2018-06-04T16:49:57.683Z,24.70
2018-06-04T16:52:26.489Z,24.70
2018-06-04T16:54:55.302Z,24.70
2018-06-04T16:57:24.106Z,24.70
2018-06-04T16:59:52.926Z,24.70
2018-06-04T17:02:21.725Z,24.70
2018-06-04T17:04:50.541Z,24.60
2018-06-04T17:09:48.484Z,24.40
2018-06-04T17:12:17.273Z,24.20
2018-06-04T17:14:46.073Z,24.10
2018-06-04T17:17:14.950Z,24.00
2018-06-04T17:19:43.754Z,23.90
2018-06-04T17:22:12.578Z,23.90
2018-06-04T17:24:41.395Z,23.90
2018-06-04T17:27:10.208Z,23.80
2018-06-04T17:29:39.022Z,23.70
2018-06-04T17:32:07.855Z,23.70
2018-06-04T17:34:36.672Z,23.70
2018-06-04T17:37:05.474Z,23.70
2018-06-04T17:39:34.278Z,23.70
2018-06-04T17:42:03.134Z,23.70
2018-06-04T17:44:31.946Z,23.70
2018-06-04T17:47:00.798Z,23.60
2018-06-04T17:49:29.602Z,23.50
2018-06-04T17:51:58.408Z,23.50
2018-06-04T17:54:27.208Z,23.50
2018-06-04T17:56:56.014Z,23.40
2018-06-04T17:59:24.821Z,23.30
2018-06-04T18:01:54.275Z,23.20
2018-06-04T18:04:23.083Z,23.20
2018-06-04T18:06:51.894Z,23.10
2018-06-04T18:09:20.712Z,23.00
2018-06-04T18:11:49.620Z,23.00
2018-06-04T18:14:18.461Z,22.90
2018-06-04T18:16:47.339Z,22.90
2018-06-04T18:19:16.122Z,22.80
2018-06-04T18:21:44.988Z,22.80
2018-06-04T18:24:13.801Z,22.70
2018-06-04T18:26:42.629Z,22.60
2018-06-04T18:29:11.534Z,22.60
2018-06-04T18:31:40.374Z,22.50
2018-06-04T18:34:09.182Z,22.40
2018-06-04T18:36:37.990Z,22.30
2018-06-04T18:39:08.448Z,22.20
2018-06-04T18:41:37.254Z,22.20
2018-06-04T18:44:06.079Z,22.10
2018-06-04T18:46:35.025Z,22.10
2018-06-04T18:49:03.822Z,22.00
2018-06-04T18:51:32.640Z,21.90
2018-06-04T18:54:01.462Z,21.80
2018-06-04T18:56:30.291Z,21.70
2018-06-04T18:58:59.098Z,21.60
2018-06-04T19:01:27.898Z,21.50
2018-06-04T19:03:56.727Z,21.50
2018-06-04T19:06:25.560Z,21.40
2018-06-04T19:08:54.422Z,21.40
2018-06-04T19:11:23.190Z,21.30
2018-06-04T19:13:52.007Z,21.20
2018-06-04T19:16:20.853Z,21.10
2018-06-04T19:18:49.738Z,21.00
2018-06-04T19:21:18.542Z,20.90
2018-06-04T19:23:47.367Z,20.90
2018-06-04T19:26:16.169Z,20.80
2018-06-04T19:28:44.999Z,20.70
2018-06-04T19:31:13.934Z,20.60
2018-06-04T19:33:42.768Z,20.50
2018-06-04T19:36:11.562Z,20.50
2018-06-04T19:38:40.783Z,20.40
2018-06-04T19:41:10.386Z,20.40
2018-06-04T19:43:39.203Z,20.40
2018-06-04T19:46:08.001Z,20.30
2018-06-04T19:48:37.394Z,20.30
2018-06-04T19:51:06.990Z,20.20
2018-06-04T19:53:35.812Z,20.10
2018-06-04T19:56:04.660Z,20.00
2018-06-04T19:58:33.444Z,20.00
2018-06-04T20:01:02.317Z,20.00
2018-06-04T20:03:31.139Z,20.00
2018-06-04T20:05:59.978Z,20.00
2018-06-04T20:08:28.800Z,20.00
2018-06-04T20:10:57.614Z,20.00
2018-06-04T20:13:26.443Z,19.90
2018-06-04T20:15:55.266Z,19.80
2018-06-04T20:18:24.106Z,19.80
2018-06-04T20:20:52.914Z,19.80
2018-06-04T20:23:21.805Z,19.70
2018-06-04T20:25:50.614Z,19.60
2018-06-04T20:28:20.222Z,19.60
2018-06-04T20:30:49.035Z,19.60
2018-06-04T20:33:17.850Z,19.50
2018-06-04T20:35:46.723Z,19.50
2018-06-04T20:38:15.546Z,19.40
2018-06-04T20:40:44.351Z,19.40
2018-06-04T20:43:13.265Z,19.30
2018-06-04T20:45:42.081Z,19.20
2018-06-04T20:48:10.910Z,19.20
2018-06-04T20:50:39.794Z,19.10
2018-06-04T20:53:08.682Z,19.10
2018-06-04T20:55:37.503Z,19.00
2018-06-04T20:58:06.316Z,19.00
2018-06-04T21:00:35.139Z,19.00
2018-06-04T21:03:03.955Z,18.90
2018-06-04T21:05:32.784Z,18.90
2018-06-04T21:08:01.613Z,18.80
2018-06-04T21:10:30.414Z,18.70
2018-06-04T21:12:59.234Z,18.70
2018-06-04T21:15:28.059Z,18.60
2018-06-04T21:17:56.963Z,18.50
2018-06-04T21:20:25.878Z,18.50
2018-06-04T21:22:54.761Z,18.50
2018-06-04T21:25:23.577Z,18.50
2018-06-04T21:27:52.374Z,18.40
2018-06-04T21:30:21.202Z,18.40
2018-06-04T21:32:50.011Z,18.30
2018-06-04T21:35:18.823Z,18.30
2018-06-04T21:37:47.682Z,18.20
2018-06-04T21:40:16.498Z,18.20
2018-06-04T21:42:45.308Z,18.10
2018-06-04T21:45:14.120Z,18.10
2018-06-04T21:47:43.327Z,18.00
2018-06-04T21:50:12.093Z,18.00
2018-06-04T21:52:40.910Z,18.00
2018-06-04T21:55:09.794Z,17.90
2018-06-04T21:57:38.622Z,17.90
2018-06-04T22:00:09.240Z,17.80
2018-06-04T22:02:38.619Z,17.80
2018-06-04T22:05:07.417Z,17.70
2018-06-04T22:07:36.229Z,17.70
2018-06-04T22:10:05.730Z,17.70
2018-06-04T22:12:34.547Z,17.70
2018-06-04T22:15:03.350Z,17.70
2018-06-04T22:20:00.659Z,17.80
2018-06-04T22:22:29.498Z,17.90
2018-06-04T22:24:58.337Z,17.90
2018-06-04T22:27:27.151Z,17.90
2018-06-04T22:29:55.964Z,18.00
2018-06-04T22:34:53.349Z,18.00
2018-06-04T22:37:22.171Z,18.00
2018-06-04T22:39:50.970Z,18.10
2018-06-04T22:42:19.777Z,18.10
2018-06-04T22:44:48.586Z,18.10
2018-06-04T22:49:46.086Z,18.10
2018-06-04T22:52:14.896Z,18.00
2018-06-04T22:54:43.814Z,18.00
2018-06-04T22:57:12.594Z,18.00
2018-06-04T22:59:41.411Z,18.00
2018-06-04T23:02:10.231Z,18.00
2018-06-04T23:04:39.048Z,18.00
2018-06-04T23:07:07.862Z,18.00
2018-06-04T23:09:36.687Z,18.00
2018-06-04T23:12:06.103Z,18.00
2018-06-04T23:14:34.926Z,18.00
2018-06-04T23:17:03.733Z,18.00
2018-06-04T23:19:32.570Z,17.90
2018-06-04T23:22:01.433Z,17.90
2018-06-04T23:24:30.250Z,17.90
2018-06-04T23:26:59.070Z,17.90
2018-06-04T23:29:27.894Z,17.90
2018-06-04T23:31:56.703Z,17.80
2018-06-04T23:34:25.633Z,17.80
2018-06-04T23:36:54.439Z,17.80
2018-06-04T23:39:23.262Z,17.80
2018-06-04T23:41:52.088Z,17.70
2018-06-04T23:44:20.989Z,17.70
2018-06-04T23:46:49.811Z,17.70
2018-06-04T23:49:18.782Z,17.60
2018-06-04T23:51:47.587Z,17.60
2018-06-04T23:54:16.402Z,17.60
2018-06-04T23:56:45.205Z,17.50
2018-06-04T23:59:14.031Z,17.50
